nws-alerts: Checking more than four warning/county codes can delay the loading of your pages. You should use a cron job to get the data.
EllijayWeather Historical Data
Daily Summary for February 12, 2019 Units:  English    Metric   Both
Daily Weekly Monthly Yearly
  High: Low: Average:
Temperature: 62.0 °F 40.0 °F 54.4 °F
Dew Point: 61.0 °F 35.0 °F 53.3 °F
Humidity: 100% 81% 96%
Wind Speed: 11mph 0mph 1.5mph
Wind Gust: 12mph - -
Wind- - SSE
Pressure: 30.1 in 29.8 in -
Precipitation: 1.370 in    
 
 
Tabular Data for February 12, 2019
Time Temperature Dew Point Pressure Wind Wind Speed Wind Gust Humidity Rainfall Rate (Hourly)
00:04 56.0 °F 56.0 °F 30.0 in ESE 2 mph 2 mph 99% 0.000 in
00:09 56.0 °F 56.0 °F 30.0 in Calm   2 mph 99% 0.000 in
00:14 56.0 °F 56.0 °F 30.0 in Calm     99% 0.000 in
00:19 56.0 °F 56.0 °F 30.0 in Calm   1 mph 99% 0.000 in
00:24 56.0 °F 56.0 °F 30.0 in Calm   1 mph 99% 0.000 in
00:29 56.0 °F 56.0 °F 30.0 in ESE 2 mph 2 mph 99% 0.000 in
00:34 57.0 °F 56.0 °F 30.0 in East 4 mph 4 mph 99% 0.000 in
00:39 57.0 °F 56.0 °F 30.0 in East 1 mph 4 mph 99% 0.010 in
00:44 57.0 °F 56.0 °F 30.0 in East 1 mph 2 mph 99% 0.010 in
00:49 57.0 °F 56.0 °F 30.0 in East 2 mph 2 mph 98% 0.010 in
00:54 57.0 °F 56.0 °F 30.0 in East 1 mph 4 mph 98% 0.010 in
00:59 57.0 °F 56.0 °F 30.0 in ESE 1 mph 4 mph 98% 0.010 in
01:04 57.0 °F 56.0 °F 30.0 in ESE 1 mph 2 mph 98% 0.010 in
01:09 57.0 °F 56.0 °F 30.0 in ESE 2 mph 2 mph 98% 0.010 in
01:14 57.0 °F 56.0 °F 30.0 in ESE 4 mph 4 mph 98% 0.020 in
01:19 57.0 °F 56.0 °F 30.0 in South 2 mph 4 mph 98% 0.020 in
01:24 57.0 °F 56.0 °F 30.0 in South 2 mph 4 mph 98% 0.020 in
01:29 57.0 °F 56.0 °F 30.0 in East 4 mph 7 mph 98% 0.020 in
01:34 57.0 °F 56.0 °F 30.0 in SW 3 mph 7 mph 98% 0.030 in
01:39 57.0 °F 56.0 °F 30.0 in SSW 1 mph 4 mph 98% 0.030 in
01:44 57.0 °F 56.0 °F 30.0 in SSE 1 mph 2 mph 98% 0.020 in
01:49 57.0 °F 56.0 °F 30.0 in SE 1 mph 2 mph 98% 0.030 in
01:54 57.0 °F 56.0 °F 30.0 in SE 1 mph 2 mph 98% 0.030 in
01:59 57.0 °F 56.0 °F 30.0 in East 1 mph 2 mph 98% 0.030 in
02:04 57.0 °F 56.0 °F 30.0 in East 4 mph 4 mph 99% 0.040 in
02:09 57.0 °F 56.0 °F 30.0 in ESE 1 mph 5 mph 98% 0.040 in
02:14 57.0 °F 56.0 °F 30.0 in SE 2 mph 4 mph 98% 0.040 in
02:19 57.0 °F 56.0 °F 30.0 in ESE 5 mph 5 mph 98% 0.030 in
02:24 57.0 °F 56.0 °F 30.0 in East 1 mph 4 mph 97% 0.030 in
02:29 57.0 °F 56.0 °F 30.0 in SE 2 mph 4 mph 97% 0.030 in
02:34 57.0 °F 56.0 °F 30.0 in ESE 11 mph 11 mph 97% 0.030 in
02:39 57.0 °F 56.0 °F 30.0 in South 2 mph 2 mph 97% 0.030 in
02:44 57.0 °F 56.0 °F 30.0 in East 4 mph 4 mph 97% 0.030 in
02:49 56.0 °F 55.0 °F 30.0 in Calm   1 mph 97% 0.030 in
02:54 56.0 °F 55.0 °F 30.0 in Calm   1 mph 98% 0.020 in
02:59 56.0 °F 55.0 °F 30.0 in Calm     98% 0.030 in
03:04 56.0 °F 55.0 °F 30.0 in Calm     97% 0.030 in
03:09 55.0 °F 54.0 °F 30.0 in East 2 mph 2 mph 97% 0.030 in
03:14 55.0 °F 54.0 °F 30.0 in East 1 mph 2 mph 98% 0.030 in
03:19 55.0 °F 54.0 °F 30.0 in East 2 mph 4 mph 98% 0.030 in
03:24 54.0 °F 53.0 °F 30.0 in East 4 mph 5 mph 97% 0.030 in
03:29 54.0 °F 53.0 °F 30.0 in East 2 mph 4 mph 97% 0.030 in
03:34 54.0 °F 53.0 °F 30.0 in South 2 mph 4 mph 98% 0.030 in
03:39 54.0 °F 53.0 °F 30.0 in SSE 2 mph 4 mph 98% 0.030 in
03:44 55.0 °F 54.0 °F 30.0 in ESE 4 mph 5 mph 99% 0.020 in
03:49 55.0 °F 55.0 °F 30.0 in ESE 5 mph 7 mph 100% 0.020 in
03:54 56.0 °F 56.0 °F 30.0 in ESE 5 mph 6 mph 100% 0.020 in
03:59 56.0 °F 56.0 °F 30.0 in ESE 2 mph 4 mph 99% 0.030 in
04:04 56.0 °F 56.0 °F 30.0 in Calm   4 mph 99% 0.020 in
04:09 56.0 °F 56.0 °F 30.0 in SE 1 mph 6 mph 99% 0.020 in
04:14 56.0 °F 56.0 °F 30.0 in Calm   1 mph 99% 0.030 in
04:19 56.0 °F 56.0 °F 30.0 in East 5 mph 9 mph 99% 0.030 in
04:24 57.0 °F 56.0 °F 30.0 in ESE 5 mph 9 mph 99% 0.050 in
04:29 57.0 °F 56.0 °F 30.0 in ESE 2 mph 8 mph 99% 0.050 in
04:34 57.0 °F 56.0 °F 30.0 in Calm   4 mph 98% 0.060 in
04:39 57.0 °F 56.0 °F 30.0 in East 2 mph 4 mph 98% 0.060 in
04:44 57.0 °F 56.0 °F 30.0 in ENE 1 mph 4 mph 98% 0.070 in
04:49 57.0 °F 56.0 °F 30.0 in Calm     98% 0.070 in
04:54 57.0 °F 56.0 °F 30.0 in Calm   1 mph 99% 0.090 in
04:59 57.0 °F 57.0 °F 30.0 in Calm   1 mph 99% 0.090 in
05:04 57.0 °F 56.0 °F 30.0 in ENE 1 mph 1 mph 98% 0.100 in
05:09 56.0 °F 54.0 °F 30.0 in ENE 2 mph 2 mph 95% 0.110 in
05:14 55.0 °F 53.0 °F 30.0 in Calm   2 mph 97% 0.130 in
05:19 54.0 °F 53.0 °F 30.0 in Calm     97% 0.130 in
05:24 54.0 °F 53.0 °F 30.0 in Calm     97% 0.130 in
05:29 53.0 °F 52.0 °F 30.0 in Calm   1 mph 97% 0.110 in
05:34 53.0 °F 52.0 °F 29.9 in ENE 1 mph 1 mph 97% 0.110 in
05:39 53.0 °F 52.0 °F 30.0 in Calm     98% 0.110 in
05:44 53.0 °F 52.0 °F 30.0 in Calm     98% 0.110 in
05:49 53.0 °F 52.0 °F 30.0 in Calm     98% 0.100 in
05:54 52.0 °F 52.0 °F 30.0 in Calm     98% 0.090 in
05:59 52.0 °F 52.0 °F 29.9 in Calm     98% 0.080 in
06:04 52.0 °F 52.0 °F 29.9 in Calm     99% 0.070 in
06:09 52.0 °F 52.0 °F 29.9 in Calm   1 mph 99% 0.060 in
06:14 53.0 °F 52.0 °F 29.9 in Calm     99% 0.030 in
06:19 53.0 °F 52.0 °F 29.9 in ENE 1 mph 3 mph 99% 0.010 in
06:24 54.0 °F 54.0 °F 29.9 in ESE 4 mph 4 mph 100% 0.010 in
06:29 55.0 °F 55.0 °F 29.9 in East 2 mph 3 mph 100% 0.030 in
06:34 56.0 °F 56.0 °F 29.9 in SE 2 mph 4 mph 100% 0.030 in
06:39 57.0 °F 57.0 °F 29.9 in SE 1 mph 4 mph 100% 0.030 in
06:44 57.0 °F 57.0 °F 29.9 in Calm   2 mph 100% 0.020 in
06:49 57.0 °F 57.0 °F 29.9 in SE 1 mph 1 mph 100% 0.020 in
06:54 57.0 °F 57.0 °F 29.9 in SE 1 mph 2 mph 100% 0.020 in
06:59 57.0 °F 57.0 °F 29.9 in ESE 2 mph 4 mph 100% 0.020 in
07:04 57.0 °F 57.0 °F 29.9 in SE 1 mph 4 mph 100% 0.020 in
07:09 57.0 °F 57.0 °F 29.9 in East 2 mph 4 mph 100% 0.020 in
07:14 57.0 °F 57.0 °F 29.9 in ENE 3 mph 3 mph 100% 0.020 in
07:19 58.0 °F 58.0 °F 29.9 in ESE 2 mph 4 mph 100% 0.020 in
07:24 58.0 °F 58.0 °F 29.9 in SE 4 mph 5 mph 100% 0.030 in
07:29 58.0 °F 57.0 °F 29.9 in East 3 mph 5 mph 99% 0.030 in
07:34 58.0 °F 57.0 °F 29.9 in ESE 2 mph 4 mph 99% 0.010 in
07:39 58.0 °F 57.0 °F 29.9 in SE 4 mph 5 mph 99% 0.020 in
07:44 58.0 °F 57.0 °F 29.9 in ESE 1 mph 5 mph 99% 0.020 in
07:49 58.0 °F 57.0 °F 29.9 in ESE 2 mph 5 mph 99% 0.030 in
07:54 58.0 °F 57.0 °F 29.9 in ESE 1 mph 2 mph 99% 0.030 in
07:59 58.0 °F 57.0 °F 29.9 in East 2 mph 2 mph 99% 0.030 in
08:04 58.0 °F 58.0 °F 29.9 in East 2 mph 4 mph 99% 0.030 in
08:09 58.0 °F 57.0 °F 29.9 in SE 5 mph 7 mph 98% 0.030 in
08:14 58.0 °F 58.0 °F 29.9 in ESE 2 mph 4 mph 98% 0.030 in
08:19 58.0 °F 58.0 °F 29.9 in SSE 3 mph 4 mph 98% 0.030 in
08:24 58.0 °F 58.0 °F 29.9 in East 2 mph 4 mph 98% 0.030 in
08:29 58.0 °F 58.0 °F 29.9 in ESE 4 mph 4 mph 99% 0.020 in
08:34 58.0 °F 58.0 °F 29.9 in East 3 mph 3 mph 98% 0.020 in
08:39 59.0 °F 58.0 °F 29.9 in East 2 mph 4 mph 99% 0.020 in
08:44 59.0 °F 58.0 °F 29.9 in ESE 1 mph 4 mph 99% 0.010 in
08:49 59.0 °F 59.0 °F 29.9 in ESE 1 mph 1 mph 99% 0.010 in
08:54 59.0 °F 59.0 °F 29.9 in ESE 2 mph 6 mph 100% 0.000 in
08:59 59.0 °F 59.0 °F 29.9 in SE 2 mph 5 mph 99% 0.000 in
09:04 59.0 °F 59.0 °F 29.9 in SE 2 mph 4 mph 99% 0.000 in
09:09 59.0 °F 59.0 °F 29.9 in ESE 1 mph 5 mph 98% 0.000 in
09:14 59.0 °F 59.0 °F 29.9 in ESE 4 mph 6 mph 98% 0.000 in
09:19 59.0 °F 59.0 °F 29.9 in ESE 2 mph 5 mph 98% 0.000 in
09:24 59.0 °F 59.0 °F 29.9 in Calm   5 mph 98% 0.000 in
09:29 59.0 °F 59.0 °F 29.9 in East 4 mph 4 mph 98% 0.000 in
09:34 59.0 °F 59.0 °F 29.9 in ESE 2 mph 4 mph 98% 0.000 in
09:39 59.0 °F 59.0 °F 29.9 in ESE 1 mph 6 mph 98% 0.000 in
09:44 60.0 °F 59.0 °F 29.9 in ESE 5 mph 7 mph 98% 0.000 in
09:49 60.0 °F 59.0 °F 29.9 in SE 4 mph 7 mph 98% 0.000 in
09:54 60.0 °F 59.0 °F 29.9 in ESE 2 mph 6 mph 98% 0.000 in
09:59 60.0 °F 59.0 °F 29.9 in ESE 2 mph 4 mph 97% 0.000 in
10:04 60.0 °F 59.0 °F 29.9 in South 1 mph 4 mph 97% 0.000 in
10:09 60.0 °F 59.0 °F 29.9 in SSE 2 mph 4 mph 97% 0.000 in
10:14 60.0 °F 59.0 °F 29.9 in East 4 mph 4 mph 97% 0.000 in
10:19 60.0 °F 59.0 °F 29.9 in East 1 mph 4 mph 97% 0.000 in
10:24 60.0 °F 59.0 °F 29.9 in East 1 mph 4 mph 97% 0.000 in
10:29 60.0 °F 59.0 °F 29.9 in ESE 4 mph 5 mph 97% 0.000 in
10:34 60.0 °F 59.0 °F 29.9 in ESE 6 mph 7 mph 97% 0.000 in
10:39 60.0 °F 59.0 °F 29.9 in East 4 mph 7 mph 97% 0.000 in
10:44 60.0 °F 60.0 °F 29.9 in ESE 2 mph 5 mph 97% 0.000 in
10:49 61.0 °F 60.0 °F 29.9 in ESE 1 mph 4 mph 97% 0.000 in
10:54 61.0 °F 60.0 °F 29.9 in ESE 5 mph 8 mph 96% 0.000 in
10:59 61.0 °F 60.0 °F 29.9 in ESE 4 mph 8 mph 96% 0.000 in
11:04 61.0 °F 60.0 °F 29.9 in SE 4 mph 4 mph 96% 0.000 in
11:09 61.0 °F 60.0 °F 29.9 in ESE 4 mph 6 mph 96% 0.000 in
11:14 61.0 °F 60.0 °F 29.9 in SSE 4 mph 5 mph 96% 0.000 in
11:19 61.0 °F 60.0 °F 29.9 in SSE 4 mph 5 mph 96% 0.000 in
11:24 61.0 °F 60.0 °F 29.9 in SE 6 mph 6 mph 95% 0.000 in
11:29 61.0 °F 60.0 °F 29.9 in ESE 5 mph 6 mph 95% 0.000 in
11:34 61.0 °F 60.0 °F 29.9 in ESE 6 mph 8 mph 95% 0.000 in
11:39 61.0 °F 60.0 °F 29.9 in ESE 6 mph 7 mph 95% 0.000 in
11:44 61.0 °F 60.0 °F 29.9 in ESE 4 mph 5 mph 95% 0.000 in
11:49 61.0 °F 60.0 °F 29.9 in ESE 6 mph 8 mph 95% 0.000 in
11:54 61.0 °F 60.0 °F 29.9 in Calm   3 mph 94% 0.000 in
11:59 61.0 °F 60.0 °F 29.9 in Calm     94% 0.000 in
12:04 62.0 °F 60.0 °F 29.8 in Calm     94% 0.000 in
12:09 62.0 °F 60.0 °F 29.8 in Calm     94% 0.000 in
12:14 62.0 °F 61.0 °F 29.8 in Calm     96% 0.000 in
12:19 62.0 °F 60.0 °F 29.8 in Calm     95% 0.020 in
12:24 61.0 °F 60.0 °F 29.8 in Calm     96% 0.060 in
12:29 61.0 °F 60.0 °F 29.9 in Calm     97% 0.150 in
12:34 60.0 °F 59.0 °F 29.9 in Calm     93% 0.330 in
12:39 59.0 °F 58.0 °F 29.9 in Calm     95% 0.410 in
12:44 59.0 °F 57.0 °F 29.9 in Calm     97% 0.450 in
12:49 58.0 °F 57.0 °F 29.9 in Calm     97% 0.460 in
12:54 58.0 °F 57.0 °F 29.9 in Calm     97% 0.480 in
12:59 58.0 °F 57.0 °F 29.9 in Calm     97% 0.490 in
13:04 57.0 °F 56.0 °F 29.9 in Calm     97% 0.510 in
13:09 57.0 °F 56.0 °F 29.9 in Calm     97% 0.520 in
13:14 57.0 °F 56.0 °F 29.9 in Calm     98% 0.530 in
13:19 57.0 °F 56.0 °F 29.9 in Calm     98% 0.530 in
13:24 57.0 °F 56.0 °F 29.9 in Calm     98% 0.510 in
13:29 57.0 °F 56.0 °F 29.9 in Calm     98% 0.490 in
13:34 57.0 °F 56.0 °F 29.9 in Calm     98% 0.270 in
13:39 57.0 °F 56.0 °F 29.9 in Calm     98% 0.220 in
13:44 57.0 °F 56.0 °F 29.9 in Calm     98% 0.160 in
13:49 57.0 °F 56.0 °F 29.9 in Calm     98% 0.130 in
13:54 57.0 °F 56.0 °F 29.9 in Calm     99% 0.130 in
13:59 57.0 °F 56.0 °F 29.9 in Calm     99% 0.130 in
14:04 57.0 °F 56.0 °F 29.9 in Calm     99% 0.130 in
14:09 56.0 °F 55.0 °F 29.9 in Calm     97% 0.120 in
14:14 56.0 °F 55.0 °F 29.9 in Calm     97% 0.120 in
14:19 56.0 °F 55.0 °F 29.9 in Calm     97% 0.120 in
14:24 56.0 °F 55.0 °F 29.9 in Calm     97% 0.120 in
14:29 55.0 °F 54.0 °F 29.9 in Calm     97% 0.130 in
14:34 55.0 °F 55.0 °F 29.9 in Calm     98% 0.140 in
14:39 55.0 °F 55.0 °F 29.9 in Calm     98% 0.150 in
14:44 55.0 °F 55.0 °F 29.9 in Calm     98% 0.150 in
14:49 55.0 °F 55.0 °F 29.9 in Calm     98% 0.150 in
14:54 55.0 °F 54.0 °F 29.9 in Calm     98% 0.150 in
14:59 55.0 °F 54.0 °F 29.9 in Calm     98% 0.140 in
15:04 55.0 °F 54.0 °F 29.9 in Calm     97% 0.150 in
15:09 54.0 °F 54.0 °F 29.9 in Calm     98% 0.150 in
15:14 54.0 °F 54.0 °F 29.9 in Calm     98% 0.140 in
15:19 54.0 °F 54.0 °F 29.9 in Calm     98% 0.140 in
15:24 54.0 °F 54.0 °F 29.9 in Calm     98% 0.130 in
15:29 54.0 °F 54.0 °F 29.9 in Calm     99% 0.120 in
15:34 54.0 °F 54.0 °F 29.9 in Calm     99% 0.110 in
15:39 54.0 °F 54.0 °F 29.9 in Calm     99% 0.090 in
15:44 54.0 °F 54.0 °F 29.9 in Calm     99% 0.080 in
15:49 54.0 °F 54.0 °F 29.9 in Calm     99% 0.070 in
15:54 54.0 °F 54.0 °F 29.9 in Calm     99% 0.070 in
15:59 54.0 °F 54.0 °F 29.9 in Calm     99% 0.060 in
16:04 54.0 °F 54.0 °F 29.9 in Calm     99% 0.050 in
16:09 54.0 °F 54.0 °F 29.9 in Calm     99% 0.040 in
16:14 54.0 °F 54.0 °F 29.9 in Calm     99% 0.040 in
16:19 54.0 °F 54.0 °F 29.9 in Calm     99% 0.050 in
16:24 54.0 °F 54.0 °F 29.9 in Calm     99% 0.050 in
16:29 54.0 °F 54.0 °F 29.9 in Calm     99% 0.040 in
16:34 54.0 °F 54.0 °F 29.9 in Calm     99% 0.040 in
16:39 54.0 °F 54.0 °F 29.9 in Calm     99% 0.050 in
16:44 54.0 °F 54.0 °F 29.9 in Calm     99% 0.050 in
16:49 54.0 °F 54.0 °F 29.9 in Calm     99% 0.050 in
16:54 54.0 °F 54.0 °F 29.9 in Calm     99% 0.040 in
16:59 54.0 °F 54.0 °F 29.9 in Calm     99% 0.060 in
17:04 54.0 °F 54.0 °F 29.9 in Calm     99% 0.060 in
17:09 54.0 °F 54.0 °F 29.9 in Calm     99% 0.080 in
17:14 54.0 °F 54.0 °F 29.9 in Calm     99% 0.090 in
17:19 54.0 °F 54.0 °F 29.9 in Calm     99% 0.120 in
17:24 54.0 °F 54.0 °F 29.9 in Calm     99% 0.190 in
17:29 54.0 °F 53.0 °F 29.9 in Calm     99% 0.220 in
17:34 54.0 °F 53.0 °F 29.9 in Calm     98% 0.240 in
17:39 54.0 °F 53.0 °F 29.9 in Calm     98% 0.240 in
17:44 54.0 °F 53.0 °F 29.9 in Calm     99% 0.230 in
17:49 54.0 °F 53.0 °F 29.9 in Calm     99% 0.230 in
17:54 53.0 °F 53.0 °F 29.9 in Calm     99% 0.230 in
17:59 53.0 °F 53.0 °F 29.9 in Calm     99% 0.230 in
18:04 53.0 °F 53.0 °F 29.9 in Calm     99% 0.210 in
18:09 53.0 °F 53.0 °F 29.9 in Calm     99% 0.200 in
18:14 53.0 °F 53.0 °F 29.9 in Calm     98% 0.180 in
18:19 53.0 °F 53.0 °F 29.9 in Calm     98% 0.150 in
18:24 53.0 °F 53.0 °F 29.9 in Calm     98% 0.110 in
18:29 53.0 °F 53.0 °F 29.9 in Calm     98% 0.050 in
18:34 53.0 °F 53.0 °F 29.9 in Calm     98% 0.010 in
18:39 53.0 °F 53.0 °F 29.9 in Calm     98% 0.000 in
18:44 53.0 °F 53.0 °F 29.9 in Calm     98% 0.000 in
18:49 53.0 °F 53.0 °F 29.9 in Calm     98% 0.000 in
18:54 53.0 °F 53.0 °F 29.9 in Calm     98% 0.000 in
18:59 53.0 °F 53.0 °F 29.9 in Calm     98% 0.000 in
19:04 53.0 °F 53.0 °F 29.9 in Calm     98% 0.000 in
19:09 53.0 °F 53.0 °F 29.9 in Calm     98% 0.000 in
19:14 53.0 °F 53.0 °F 29.9 in Calm     98% 0.000 in
19:19 53.0 °F 52.0 °F 29.9 in Calm     98% 0.000 in
19:24 53.0 °F 52.0 °F 29.9 in Calm     98% 0.000 in
19:29 53.0 °F 52.0 °F 30.0 in Calm     98% 0.000 in
19:34 53.0 °F 51.0 °F 29.9 in Calm     96% 0.000 in
19:39 52.0 °F 50.0 °F 30.0 in Calm     94% 0.000 in
19:44 51.0 °F 50.0 °F 30.0 in Calm     96% 0.000 in
19:49 51.0 °F 50.0 °F 30.0 in Calm     96% 0.000 in
19:54 51.0 °F 50.0 °F 30.0 in Calm     96% 0.000 in
19:59 51.0 °F 50.0 °F 30.0 in Calm     96% 0.000 in
20:04 50.0 °F 49.0 °F 30.0 in Calm     96% 0.000 in
20:09 50.0 °F 49.0 °F 30.0 in Calm     96% 0.000 in
20:14 50.0 °F 49.0 °F 30.0 in Calm     96% 0.000 in
20:19 50.0 °F 49.0 °F 30.0 in Calm     96% 0.000 in
20:24 50.0 °F 48.0 °F 30.0 in Calm     96% 0.000 in
20:29 49.0 °F 48.0 °F 30.0 in Calm     96% 0.000 in
20:34 49.0 °F 48.0 °F 30.0 in Calm     96% 0.000 in
20:39 49.0 °F 48.0 °F 30.0 in Calm     95% 0.000 in
20:44 49.0 °F 47.0 °F 30.0 in Calm     94% 0.000 in
20:49 49.0 °F 46.0 °F 30.0 in NNW 1 mph 4 mph 90% 0.000 in
20:54 48.0 °F 46.0 °F 30.0 in NW 4 mph 7 mph 92% 0.000 in
20:59 48.0 °F 44.0 °F 30.0 in NW 5 mph 7 mph 88% 0.000 in
21:04 48.0 °F 45.0 °F 30.0 in NW 4 mph 7 mph 90% 0.000 in
21:09 47.0 °F 44.0 °F 30.0 in NNW 6 mph 12 mph 88% 0.000 in
21:14 47.0 °F 43.0 °F 30.0 in NW 10 mph 10 mph 86% 0.000 in
21:19 47.0 °F 42.0 °F 30.0 in NW 4 mph 10 mph 85% 0.000 in
21:24 46.0 °F 42.0 °F 30.0 in West 9 mph 11 mph 85% 0.000 in
21:29 46.0 °F 41.0 °F 30.0 in NW 6 mph 11 mph 82% 0.000 in
21:34 46.0 °F 41.0 °F 30.0 in West 5 mph 8 mph 85% 0.000 in
21:39 45.0 °F 40.0 °F 30.0 in WNW 6 mph 9 mph 81% 0.000 in
21:44 45.0 °F 40.0 °F 30.0 in West 3 mph 9 mph 81% 0.000 in
21:49 45.0 °F 40.0 °F 30.0 in West 3 mph 7 mph 83% 0.000 in
21:54 44.0 °F 40.0 °F 30.0 in NW 3 mph 6 mph 85% 0.000 in
21:59 44.0 °F 39.0 °F 30.0 in North 3 mph 3 mph 82% 0.000 in
22:04 44.0 °F 39.0 °F 30.0 in WNW 2 mph 6 mph 83% 0.000 in
22:09 44.0 °F 39.0 °F 30.1 in North 2 mph 4 mph 84% 0.000 in
22:14 44.0 °F 39.0 °F 30.1 in NW 1 mph 2 mph 82% 0.000 in
22:19 43.0 °F 39.0 °F 30.1 in North 1 mph 5 mph 84% 0.000 in
22:24 43.0 °F 39.0 °F 30.1 in SW 2 mph 4 mph 84% 0.000 in
22:29 43.0 °F 39.0 °F 30.1 in Calm   1 mph 86% 0.000 in
22:34 43.0 °F 39.0 °F 30.1 in WNW 5 mph 5 mph 86% 0.000 in
22:39 42.0 °F 38.0 °F 30.1 in WNW 5 mph 7 mph 84% 0.000 in
22:44 42.0 °F 37.0 °F 30.1 in NW 6 mph 9 mph 82% 0.000 in
22:49 42.0 °F 38.0 °F 30.1 in NNW 4 mph 8 mph 83% 0.000 in
22:54 42.0 °F 37.0 °F 30.1 in NW 2 mph 5 mph 81% 0.000 in
22:59 42.0 °F 37.0 °F 30.1 in NW 3 mph 4 mph 82% 0.000 in
23:04 42.0 °F 37.0 °F 30.1 in NW 2 mph 7 mph 83% 0.000 in
23:09 42.0 °F 37.0 °F 30.1 in NW 4 mph 7 mph 82% 0.000 in
23:14 42.0 °F 37.0 °F 30.1 in NW 2 mph 4 mph 83% 0.000 in
23:19 42.0 °F 37.0 °F 30.1 in WNW 1 mph 4 mph 82% 0.000 in
23:24 42.0 °F 36.0 °F 30.1 in WNW 3 mph 6 mph 82% 0.000 in
23:29 41.0 °F 36.0 °F 30.1 in North 4 mph 6 mph 82% 0.000 in
23:34 41.0 °F 36.0 °F 30.1 in Calm   4 mph 83% 0.000 in
23:39 41.0 °F 36.0 °F 30.1 in Calm   3 mph 83% 0.000 in
23:44 41.0 °F 36.0 °F 30.1 in NNW 2 mph 4 mph 82% 0.000 in
23:49 41.0 °F 35.0 °F 30.1 in NW 3 mph 3 mph 82% 0.000 in
23:54 40.0 °F 36.0 °F 30.1 in Calm   2 mph 83% 0.000 in
23:59 40.0 °F 35.0 °F 30.1 in NW 1 mph 3 mph 81% 0.000 in
East Ellijay Weather
Compliments of Weather Underground - 2 mb